sensor_id;sensor_type;location;lat;lon;timestamp;P1;durP1;ratioP1;P2;durP2;ratioP2
13720;SDS011;6932;51.438;5.470;2023-01-26T00:01:09;39.83;;;22.20;;
13720;SDS011;6932;51.438;5.470;2023-01-26T00:03:38;41.10;;;23.47;;
13720;SDS011;6932;51.438;5.470;2023-01-26T00:06:05;39.97;;;22.93;;
13720;SDS011;6932;51.438;5.470;2023-01-26T00:08:36;38.37;;;21.70;;
13720;SDS011;6932;51.438;5.470;2023-01-26T00:11:04;38.40;;;21.97;;
13720;SDS011;6932;51.438;5.470;2023-01-26T00:13:31;38.93;;;21.10;;
13720;SDS011;6932;51.438;5.470;2023-01-26T00:15:58;39.27;;;22.17;;
13720;SDS011;6932;51.438;5.470;2023-01-26T00:18:24;37.30;;;21.63;;
13720;SDS011;6932;51.438;5.470;2023-01-26T00:21:00;37.40;;;20.97;;
13720;SDS011;6932;51.438;5.470;2023-01-26T00:23:27;38.87;;;22.60;;
13720;SDS011;6932;51.438;5.470;2023-01-26T00:25:55;38.27;;;21.17;;
13720;SDS011;6932;51.438;5.470;2023-01-26T00:28:21;36.80;;;20.67;;
13720;SDS011;6932;51.438;5.470;2023-01-26T00:30:47;35.33;;;21.23;;
13720;SDS011;6932;51.438;5.470;2023-01-26T00:33:13;37.23;;;21.53;;
13720;SDS011;6932;51.438;5.470;2023-01-26T00:35:40;35.10;;;19.93;;
13720;SDS011;6932;51.438;5.470;2023-01-26T00:38:08;35.80;;;20.80;;
13720;SDS011;6932;51.438;5.470;2023-01-26T00:40:38;34.77;;;20.60;;
13720;SDS011;6932;51.438;5.470;2023-01-26T00:43:04;35.43;;;20.37;;
13720;SDS011;6932;51.438;5.470;2023-01-26T00:45:31;35.47;;;20.03;;
13720;SDS011;6932;51.438;5.470;2023-01-26T00:47:59;35.87;;;20.80;;
13720;SDS011;6932;51.438;5.470;2023-01-26T00:50:25;34.37;;;19.77;;
13720;SDS011;6932;51.438;5.470;2023-01-26T00:52:50;35.47;;;19.57;;
13720;SDS011;6932;51.438;5.470;2023-01-26T00:55:17;34.20;;;20.03;;
13720;SDS011;6932;51.438;5.470;2023-01-26T00:57:44;33.73;;;19.97;;
13720;SDS011;6932;51.438;5.470;2023-01-26T01:00:09;34.77;;;20.03;;
13720;SDS011;6932;51.438;5.470;2023-01-26T01:02:40;35.13;;;20.10;;
13720;SDS011;6932;51.438;5.470;2023-01-26T01:05:07;33.83;;;19.93;;
13720;SDS011;6932;51.438;5.470;2023-01-26T01:07:34;35.90;;;20.30;;
13720;SDS011;6932;51.438;5.470;2023-01-26T01:10:00;34.43;;;20.70;;
13720;SDS011;6932;51.438;5.470;2023-01-26T01:12:26;33.30;;;19.37;;
13720;SDS011;6932;51.438;5.470;2023-01-26T01:14:52;34.47;;;19.80;;
13720;SDS011;6932;51.438;5.470;2023-01-26T01:17:17;32.80;;;18.97;;
13720;SDS011;6932;51.438;5.470;2023-01-26T01:19:43;32.83;;;18.90;;
13720;SDS011;6932;51.438;5.470;2023-01-26T01:22:09;34.63;;;20.50;;
13720;SDS011;6932;51.438;5.470;2023-01-26T01:24:34;32.63;;;19.23;;
13720;SDS011;6932;51.438;5.470;2023-01-26T01:27:01;34.13;;;19.23;;
13720;SDS011;6932;51.438;5.470;2023-01-26T01:29:27;33.50;;;19.23;;
13720;SDS011;6932;51.438;5.470;2023-01-26T01:31:53;34.63;;;19.97;;
13720;SDS011;6932;51.438;5.470;2023-01-26T01:34:19;32.60;;;18.90;;
13720;SDS011;6932;51.438;5.470;2023-01-26T01:36:44;32.80;;;19.20;;
13720;SDS011;6932;51.438;5.470;2023-01-26T01:39:10;34.23;;;19.20;;
13720;SDS011;6932;51.438;5.470;2023-01-26T01:41:36;34.83;;;19.67;;
13720;SDS011;6932;51.438;5.470;2023-01-26T01:44:12;33.23;;;18.67;;
13720;SDS011;6932;51.438;5.470;2023-01-26T01:46:47;33.23;;;19.47;;
13720;SDS011;6932;51.438;5.470;2023-01-26T01:49:29;32.93;;;19.00;;
13720;SDS011;6932;51.438;5.470;2023-01-26T01:52:04;32.23;;;18.87;;
13720;SDS011;6932;51.438;5.470;2023-01-26T01:54:55;33.33;;;19.17;;
13720;SDS011;6932;51.438;5.470;2023-01-26T01:57:37;33.50;;;18.70;;
13720;SDS011;6932;51.438;5.470;2023-01-26T02:00:20;32.00;;;18.57;;
13720;SDS011;6932;51.438;5.470;2023-01-26T02:02:52;32.67;;;18.87;;
13720;SDS011;6932;51.438;5.470;2023-01-26T02:08:29;33.73;;;18.83;;
13720;SDS011;6932;51.438;5.470;2023-01-26T02:11:02;31.97;;;18.80;;
13720;SDS011;6932;51.438;5.470;2023-01-26T02:13:34;30.77;;;18.27;;
13720;SDS011;6932;51.438;5.470;2023-01-26T02:16:02;30.43;;;17.77;;
13720;SDS011;6932;51.438;5.470;2023-01-26T02:18:28;29.80;;;17.27;;
13720;SDS011;6932;51.438;5.470;2023-01-26T02:21:04;31.23;;;17.57;;
13720;SDS011;6932;51.438;5.470;2023-01-26T02:23:39;31.03;;;18.17;;
13720;SDS011;6932;51.438;5.470;2023-01-26T02:26:23;31.03;;;17.27;;
13720;SDS011;6932;51.438;5.470;2023-01-26T02:28:53;30.53;;;18.27;;
13720;SDS011;6932;51.438;5.470;2023-01-26T02:31:20;30.73;;;17.60;;
13720;SDS011;6932;51.438;5.470;2023-01-26T02:33:48;30.97;;;18.27;;
13720;SDS011;6932;51.438;5.470;2023-01-26T02:41:42;31.00;;;18.03;;
13720;SDS011;6932;51.438;5.470;2023-01-26T02:44:26;29.57;;;17.27;;
13720;SDS011;6932;51.438;5.470;2023-01-26T02:46:54;29.90;;;17.20;;
13720;SDS011;6932;51.438;5.470;2023-01-26T02:49:20;31.07;;;18.00;;
13720;SDS011;6932;51.438;5.470;2023-01-26T02:52:04;28.50;;;16.43;;
13720;SDS011;6932;51.438;5.470;2023-01-26T02:54:31;29.40;;;17.03;;
13720;SDS011;6932;51.438;5.470;2023-01-26T02:57:15;31.33;;;17.87;;
13720;SDS011;6932;51.438;5.470;2023-01-26T02:59:41;29.23;;;17.53;;
13720;SDS011;6932;51.438;5.470;2023-01-26T03:02:06;31.27;;;17.77;;
13720;SDS011;6932;51.438;5.470;2023-01-26T03:04:32;29.00;;;17.47;;
13720;SDS011;6932;51.438;5.470;2023-01-26T03:06:58;30.27;;;17.27;;
13720;SDS011;6932;51.438;5.470;2023-01-26T03:09:24;30.70;;;17.10;;
13720;SDS011;6932;51.438;5.470;2023-01-26T03:11:49;29.97;;;17.33;;
13720;SDS011;6932;51.438;5.470;2023-01-26T03:14:15;30.23;;;17.63;;
13720;SDS011;6932;51.438;5.470;2023-01-26T03:16:41;30.27;;;17.77;;
13720;SDS011;6932;51.438;5.470;2023-01-26T03:19:08;29.73;;;17.10;;
13720;SDS011;6932;51.438;5.470;2023-01-26T03:21:56;30.17;;;17.17;;
13720;SDS011;6932;51.438;5.470;2023-01-26T03:24:41;31.33;;;17.63;;
13720;SDS011;6932;51.438;5.470;2023-01-26T03:27:27;28.90;;;17.03;;
13720;SDS011;6932;51.438;5.470;2023-01-26T03:30:20;30.53;;;17.23;;
13720;SDS011;6932;51.438;5.470;2023-01-26T03:32:45;30.03;;;17.47;;
13720;SDS011;6932;51.438;5.470;2023-01-26T03:35:11;29.90;;;17.10;;
13720;SDS011;6932;51.438;5.470;2023-01-26T03:37:40;30.00;;;17.30;;
13720;SDS011;6932;51.438;5.470;2023-01-26T03:40:11;28.73;;;16.97;;
13720;SDS011;6932;51.438;5.470;2023-01-26T03:42:56;28.93;;;16.20;;
13720;SDS011;6932;51.438;5.470;2023-01-26T03:45:41;29.27;;;16.47;;
13720;SDS011;6932;51.438;5.470;2023-01-26T03:48:25;26.40;;;14.93;;
13720;SDS011;6932;51.438;5.470;2023-01-26T03:51:09;25.87;;;15.40;;
13720;SDS011;6932;51.438;5.470;2023-01-26T03:53:53;25.23;;;14.53;;
13720;SDS011;6932;51.438;5.470;2023-01-26T03:56:37;25.03;;;14.47;;
13720;SDS011;6932;51.438;5.470;2023-01-26T03:59:04;25.13;;;14.57;;
13720;SDS011;6932;51.438;5.470;2023-01-26T04:01:33;26.63;;;15.00;;
13720;SDS011;6932;51.438;5.470;2023-01-26T04:04:01;24.13;;;14.47;;
13720;SDS011;6932;51.438;5.470;2023-01-26T04:06:47;25.43;;;15.03;;
13720;SDS011;6932;51.438;5.470;2023-01-26T04:09:33;24.13;;;14.27;;
13720;SDS011;6932;51.438;5.470;2023-01-26T04:12:01;25.37;;;14.17;;
13720;SDS011;6932;51.438;5.470;2023-01-26T04:14:27;24.60;;;14.70;;
13720;SDS011;6932;51.438;5.470;2023-01-26T04:17:12;24.40;;;13.80;;
13720;SDS011;6932;51.438;5.470;2023-01-26T04:19:56;22.80;;;13.23;;
13720;SDS011;6932;51.438;5.470;2023-01-26T04:22:40;23.60;;;13.53;;
13720;SDS011;6932;51.438;5.470;2023-01-26T04:25:10;24.50;;;13.47;;
13720;SDS011;6932;51.438;5.470;2023-01-26T04:27:39;24.77;;;13.87;;
13720;SDS011;6932;51.438;5.470;2023-01-26T04:30:07;22.73;;;13.20;;
13720;SDS011;6932;51.438;5.470;2023-01-26T04:32:36;23.23;;;13.47;;
13720;SDS011;6932;51.438;5.470;2023-01-26T04:35:02;22.50;;;13.37;;
13720;SDS011;6932;51.438;5.470;2023-01-26T04:37:30;22.93;;;13.43;;
13720;SDS011;6932;51.438;5.470;2023-01-26T04:39:56;22.83;;;12.47;;
13720;SDS011;6932;51.438;5.470;2023-01-26T04:42:22;22.57;;;12.70;;
13720;SDS011;6932;51.438;5.470;2023-01-26T04:44:49;21.63;;;12.27;;
13720;SDS011;6932;51.438;5.470;2023-01-26T04:47:18;21.60;;;12.40;;
13720;SDS011;6932;51.438;5.470;2023-01-26T04:49:44;21.40;;;12.90;;
13720;SDS011;6932;51.438;5.470;2023-01-26T04:52:11;20.73;;;11.43;;
13720;SDS011;6932;51.438;5.470;2023-01-26T04:54:37;20.33;;;11.63;;
13720;SDS011;6932;51.438;5.470;2023-01-26T04:57:04;19.90;;;11.17;;
13720;SDS011;6932;51.438;5.470;2023-01-26T04:59:30;20.70;;;12.00;;
13720;SDS011;6932;51.438;5.470;2023-01-26T05:01:56;21.03;;;11.60;;
13720;SDS011;6932;51.438;5.470;2023-01-26T05:04:21;21.63;;;12.03;;
13720;SDS011;6932;51.438;5.470;2023-01-26T05:06:47;22.30;;;12.23;;
13720;SDS011;6932;51.438;5.470;2023-01-26T05:09:13;21.13;;;11.67;;
13720;SDS011;6932;51.438;5.470;2023-01-26T05:11:39;21.27;;;12.30;;
13720;SDS011;6932;51.438;5.470;2023-01-26T05:14:05;21.47;;;11.70;;
13720;SDS011;6932;51.438;5.470;2023-01-26T05:16:30;20.60;;;11.80;;
13720;SDS011;6932;51.438;5.470;2023-01-26T05:18:56;21.03;;;11.63;;
13720;SDS011;6932;51.438;5.470;2023-01-26T05:21:22;20.23;;;11.63;;
13720;SDS011;6932;51.438;5.470;2023-01-26T05:23:49;20.77;;;11.83;;
13720;SDS011;6932;51.438;5.470;2023-01-26T05:26:15;21.20;;;11.90;;
13720;SDS011;6932;51.438;5.470;2023-01-26T05:28:41;21.00;;;11.73;;
13720;SDS011;6932;51.438;5.470;2023-01-26T05:31:07;19.67;;;10.97;;
13720;SDS011;6932;51.438;5.470;2023-01-26T05:33:33;21.03;;;11.70;;
13720;SDS011;6932;51.438;5.470;2023-01-26T05:36:01;19.27;;;10.80;;
13720;SDS011;6932;51.438;5.470;2023-01-26T05:38:31;19.83;;;11.43;;
13720;SDS011;6932;51.438;5.470;2023-01-26T05:40:58;18.20;;;10.50;;
13720;SDS011;6932;51.438;5.470;2023-01-26T05:43:24;20.37;;;11.20;;
13720;SDS011;6932;51.438;5.470;2023-01-26T05:45:50;20.00;;;10.87;;
13720;SDS011;6932;51.438;5.470;2023-01-26T05:48:16;18.97;;;10.63;;
13720;SDS011;6932;51.438;5.470;2023-01-26T05:50:42;20.03;;;10.83;;
13720;SDS011;6932;51.438;5.470;2023-01-26T05:53:08;18.77;;;10.20;;
13720;SDS011;6932;51.438;5.470;2023-01-26T05:55:34;21.03;;;11.00;;
13720;SDS011;6932;51.438;5.470;2023-01-26T05:57:59;20.30;;;11.17;;
13720;SDS011;6932;51.438;5.470;2023-01-26T06:00:25;19.77;;;11.17;;
13720;SDS011;6932;51.438;5.470;2023-01-26T06:02:51;21.27;;;10.60;;
13720;SDS011;6932;51.438;5.470;2023-01-26T06:05:17;18.97;;;10.77;;
13720;SDS011;6932;51.438;5.470;2023-01-26T06:07:43;17.27;;;9.87;;
13720;SDS011;6932;51.438;5.470;2023-01-26T06:10:08;18.70;;;10.23;;
13720;SDS011;6932;51.438;5.470;2023-01-26T06:12:35;19.67;;;10.50;;
13720;SDS011;6932;51.438;5.470;2023-01-26T06:15:03;18.87;;;10.37;;
13720;SDS011;6932;51.438;5.470;2023-01-26T06:17:30;18.93;;;10.40;;
13720;SDS011;6932;51.438;5.470;2023-01-26T06:19:56;19.07;;;10.40;;
13720;SDS011;6932;51.438;5.470;2023-01-26T06:22:22;18.53;;;10.63;;
13720;SDS011;6932;51.438;5.470;2023-01-26T06:24:48;18.80;;;10.33;;
13720;SDS011;6932;51.438;5.470;2023-01-26T06:27:14;18.80;;;10.27;;
13720;SDS011;6932;51.438;5.470;2023-01-26T06:29:42;19.37;;;9.70;;
13720;SDS011;6932;51.438;5.470;2023-01-26T06:32:10;18.03;;;9.47;;
13720;SDS011;6932;51.438;5.470;2023-01-26T06:34:37;16.17;;;8.73;;
13720;SDS011;6932;51.438;5.470;2023-01-26T06:37:03;16.60;;;9.07;;
13720;SDS011;6932;51.438;5.470;2023-01-26T06:39:29;17.60;;;9.40;;
13720;SDS011;6932;51.438;5.470;2023-01-26T06:41:55;16.73;;;9.00;;
13720;SDS011;6932;51.438;5.470;2023-01-26T06:44:21;18.13;;;9.20;;
13720;SDS011;6932;51.438;5.470;2023-01-26T06:46:47;19.50;;;9.07;;
13720;SDS011;6932;51.438;5.470;2023-01-26T06:49:12;17.47;;;9.40;;
13720;SDS011;6932;51.438;5.470;2023-01-26T06:54:09;18.03;;;9.93;;
13720;SDS011;6932;51.438;5.470;2023-01-26T06:56:36;17.47;;;9.67;;
13720;SDS011;6932;51.438;5.470;2023-01-26T06:59:02;17.50;;;9.57;;
13720;SDS011;6932;51.438;5.470;2023-01-26T07:01:30;16.73;;;9.30;;
13720;SDS011;6932;51.438;5.470;2023-01-26T07:04:03;16.43;;;9.27;;
13720;SDS011;6932;51.438;5.470;2023-01-26T07:06:29;17.53;;;9.20;;
13720;SDS011;6932;51.438;5.470;2023-01-26T07:08:55;17.27;;;9.07;;
13720;SDS011;6932;51.438;5.470;2023-01-26T07:11:20;17.47;;;9.20;;
13720;SDS011;6932;51.438;5.470;2023-01-26T07:13:46;17.30;;;9.47;;
13720;SDS011;6932;51.438;5.470;2023-01-26T07:16:13;17.33;;;9.30;;
13720;SDS011;6932;51.438;5.470;2023-01-26T07:18:40;17.60;;;9.47;;
13720;SDS011;6932;51.438;5.470;2023-01-26T07:21:08;16.47;;;8.73;;
13720;SDS011;6932;51.438;5.470;2023-01-26T07:23:39;17.30;;;9.53;;
13720;SDS011;6932;51.438;5.470;2023-01-26T07:26:05;16.67;;;8.67;;
13720;SDS011;6932;51.438;5.470;2023-01-26T07:28:31;16.73;;;9.20;;
13720;SDS011;6932;51.438;5.470;2023-01-26T07:31:01;17.17;;;9.37;;
13720;SDS011;6932;51.438;5.470;2023-01-26T07:33:30;19.23;;;9.53;;
13720;SDS011;6932;51.438;5.470;2023-01-26T07:35:57;17.40;;;9.27;;
13720;SDS011;6932;51.438;5.470;2023-01-26T07:38:24;16.77;;;9.03;;
13720;SDS011;6932;51.438;5.470;2023-01-26T07:40:51;16.90;;;9.37;;
13720;SDS011;6932;51.438;5.470;2023-01-26T07:43:17;17.83;;;9.33;;
13720;SDS011;6932;51.438;5.470;2023-01-26T07:45:46;16.97;;;8.93;;
13720;SDS011;6932;51.438;5.470;2023-01-26T07:48:16;18.60;;;9.37;;
13720;SDS011;6932;51.438;5.470;2023-01-26T07:50:45;17.73;;;9.27;;
13720;SDS011;6932;51.438;5.470;2023-01-26T07:53:12;16.97;;;9.20;;
13720;SDS011;6932;51.438;5.470;2023-01-26T07:55:39;18.10;;;9.53;;
13720;SDS011;6932;51.438;5.470;2023-01-26T07:58:08;18.67;;;9.53;;
13720;SDS011;6932;51.438;5.470;2023-01-26T08:00:34;17.40;;;9.13;;
13720;SDS011;6932;51.438;5.470;2023-01-26T08:03:00;17.77;;;9.23;;
13720;SDS011;6932;51.438;5.470;2023-01-26T08:05:26;17.80;;;9.50;;
13720;SDS011;6932;51.438;5.470;2023-01-26T08:07:52;18.60;;;10.10;;
13720;SDS011;6932;51.438;5.470;2023-01-26T08:10:25;17.03;;;9.40;;
13720;SDS011;6932;51.438;5.470;2023-01-26T08:12:55;17.80;;;9.50;;
13720;SDS011;6932;51.438;5.470;2023-01-26T08:15:23;18.13;;;9.57;;
13720;SDS011;6932;51.438;5.470;2023-01-26T08:17:49;18.07;;;9.43;;
13720;SDS011;6932;51.438;5.470;2023-01-26T08:20:15;19.93;;;11.07;;
13720;SDS011;6932;51.438;5.470;2023-01-26T08:22:41;17.90;;;9.60;;
13720;SDS011;6932;51.438;5.470;2023-01-26T08:25:06;19.87;;;10.23;;
13720;SDS011;6932;51.438;5.470;2023-01-26T08:27:33;20.03;;;10.63;;
13720;SDS011;6932;51.438;5.470;2023-01-26T08:29:59;21.10;;;11.13;;
13720;SDS011;6932;51.438;5.470;2023-01-26T08:32:25;18.13;;;9.97;;
13720;SDS011;6932;51.438;5.470;2023-01-26T08:34:53;19.60;;;10.30;;
13720;SDS011;6932;51.438;5.470;2023-01-26T08:37:19;17.93;;;9.60;;
13720;SDS011;6932;51.438;5.470;2023-01-26T08:39:44;19.87;;;10.33;;
13720;SDS011;6932;51.438;5.470;2023-01-26T08:42:10;20.30;;;10.50;;
13720;SDS011;6932;51.438;5.470;2023-01-26T08:44:36;17.17;;;9.33;;
13720;SDS011;6932;51.438;5.470;2023-01-26T08:47:02;17.90;;;9.23;;
13720;SDS011;6932;51.438;5.470;2023-01-26T08:49:27;18.63;;;10.37;;
13720;SDS011;6932;51.438;5.470;2023-01-26T08:51:53;18.00;;;9.53;;
13720;SDS011;6932;51.438;5.470;2023-01-26T08:54:19;18.20;;;9.30;;
13720;SDS011;6932;51.438;5.470;2023-01-26T08:56:44;17.10;;;9.53;;
13720;SDS011;6932;51.438;5.470;2023-01-26T08:59:10;17.10;;;9.33;;
13720;SDS011;6932;51.438;5.470;2023-01-26T09:01:36;17.53;;;9.37;;
13720;SDS011;6932;51.438;5.470;2023-01-26T09:04:02;18.57;;;9.40;;
13720;SDS011;6932;51.438;5.470;2023-01-26T09:06:27;16.93;;;9.03;;
13720;SDS011;6932;51.438;5.470;2023-01-26T09:08:54;18.87;;;10.07;;
13720;SDS011;6932;51.438;5.470;2023-01-26T09:11:20;17.93;;;9.43;;
13720;SDS011;6932;51.438;5.470;2023-01-26T09:13:49;17.50;;;9.03;;
13720;SDS011;6932;51.438;5.470;2023-01-26T09:16:20;17.23;;;9.10;;
13720;SDS011;6932;51.438;5.470;2023-01-26T09:18:48;18.77;;;9.47;;
13720;SDS011;6932;51.438;5.470;2023-01-26T09:21:16;19.57;;;9.97;;
13720;SDS011;6932;51.438;5.470;2023-01-26T09:23:43;18.20;;;9.67;;
13720;SDS011;6932;51.438;5.470;2023-01-26T09:26:09;18.13;;;9.60;;
13720;SDS011;6932;51.438;5.470;2023-01-26T09:28:35;19.33;;;9.60;;
13720;SDS011;6932;51.438;5.470;2023-01-26T09:31:02;19.03;;;9.77;;
13720;SDS011;6932;51.438;5.470;2023-01-26T09:33:32;19.27;;;9.83;;
13720;SDS011;6932;51.438;5.470;2023-01-26T09:36:05;19.03;;;9.53;;
13720;SDS011;6932;51.438;5.470;2023-01-26T09:38:34;21.50;;;10.23;;
13720;SDS011;6932;51.438;5.470;2023-01-26T09:43:39;19.23;;;10.83;;
13720;SDS011;6932;51.438;5.470;2023-01-26T09:46:24;20.37;;;10.40;;
13720;SDS011;6932;51.438;5.470;2023-01-26T09:49:09;21.90;;;10.30;;
13720;SDS011;6932;51.438;5.470;2023-01-26T09:52:01;20.90;;;10.30;;
13720;SDS011;6932;51.438;5.470;2023-01-26T09:54:42;20.33;;;10.47;;
13720;SDS011;6932;51.438;5.470;2023-01-26T09:57:14;20.27;;;10.17;;
13720;SDS011;6932;51.438;5.470;2023-01-26T09:59:50;18.63;;;10.20;;
13720;SDS011;6932;51.438;5.470;2023-01-26T10:05:30;21.87;;;10.13;;
13720;SDS011;6932;51.438;5.470;2023-01-26T10:08:17;21.27;;;10.50;;
13720;SDS011;6932;51.438;5.470;2023-01-26T10:10:48;22.80;;;11.30;;
13720;SDS011;6932;51.438;5.470;2023-01-26T10:13:22;23.17;;;12.00;;
13720;SDS011;6932;51.438;5.470;2023-01-26T10:16:02;22.27;;;11.13;;
13720;SDS011;6932;51.438;5.470;2023-01-26T10:18:39;22.97;;;11.37;;
13720;SDS011;6932;51.438;5.470;2023-01-26T10:21:32;23.17;;;10.73;;
13720;SDS011;6932;51.438;5.470;2023-01-26T10:24:04;22.87;;;10.37;;
13720;SDS011;6932;51.438;5.470;2023-01-26T10:26:34;23.60;;;11.57;;
13720;SDS011;6932;51.438;5.470;2023-01-26T10:29:00;23.77;;;12.00;;
13720;SDS011;6932;51.438;5.470;2023-01-26T10:31:27;22.17;;;11.30;;
13720;SDS011;6932;51.438;5.470;2023-01-26T10:33:58;19.73;;;10.43;;
13720;SDS011;6932;51.438;5.470;2023-01-26T10:36:30;22.37;;;10.93;;
13720;SDS011;6932;51.438;5.470;2023-01-26T10:39:17;22.93;;;11.40;;
13720;SDS011;6932;51.438;5.470;2023-01-26T10:41:54;23.50;;;11.43;;
13720;SDS011;6932;51.438;5.470;2023-01-26T10:44:31;23.20;;;11.40;;
13720;SDS011;6932;51.438;5.470;2023-01-26T10:47:01;22.77;;;11.57;;
13720;SDS011;6932;51.438;5.470;2023-01-26T10:49:37;22.90;;;11.50;;
13720;SDS011;6932;51.438;5.470;2023-01-26T10:52:24;24.50;;;11.87;;
13720;SDS011;6932;51.438;5.470;2023-01-26T10:57:44;23.30;;;11.43;;
13720;SDS011;6932;51.438;5.470;2023-01-26T11:02:53;24.13;;;11.30;;
13720;SDS011;6932;51.438;5.470;2023-01-26T11:05:30;22.67;;;11.23;;
13720;SDS011;6932;51.438;5.470;2023-01-26T11:07:56;22.97;;;12.20;;
13720;SDS011;6932;51.438;5.470;2023-01-26T11:10:37;22.67;;;11.17;;
13720;SDS011;6932;51.438;5.470;2023-01-26T11:13:18;23.93;;;11.73;;
13720;SDS011;6932;51.438;5.470;2023-01-26T11:21:26;24.43;;;11.17;;
13720;SDS011;6932;51.438;5.470;2023-01-26T11:47:03;27.03;;;11.63;;
13720;SDS011;6932;51.438;5.470;2023-01-26T11:58:31;24.17;;;11.80;;
13720;SDS011;6932;51.438;5.470;2023-01-26T12:01:38;23.73;;;10.90;;
13720;SDS011;6932;51.438;5.470;2023-01-26T12:04:20;23.10;;;10.60;;
13720;SDS011;6932;51.438;5.470;2023-01-26T12:07:34;24.93;;;11.07;;
13720;SDS011;6932;51.438;5.470;2023-01-26T12:09:45;25.50;;;10.97;;
13720;SDS011;6932;51.438;5.470;2023-01-26T12:20:23;21.70;;;10.00;;
13720;SDS011;6932;51.438;5.470;2023-01-26T12:23:15;21.53;;;9.70;;
13720;SDS011;6932;51.438;5.470;2023-01-26T12:25:48;21.90;;;9.97;;
13720;SDS011;6932;51.438;5.470;2023-01-26T12:31:22;21.87;;;9.57;;
13720;SDS011;6932;51.438;5.470;2023-01-26T12:34:10;19.90;;;9.40;;
13720;SDS011;6932;51.438;5.470;2023-01-26T12:36:50;20.57;;;9.10;;
13720;SDS011;6932;51.438;5.470;2023-01-26T12:40:07;20.77;;;10.23;;
13720;SDS011;6932;51.438;5.470;2023-01-26T12:45:48;20.63;;;9.87;;
13720;SDS011;6932;51.438;5.470;2023-01-26T12:48:21;19.97;;;9.83;;
13720;SDS011;6932;51.438;5.470;2023-01-26T12:51:14;21.17;;;9.47;;
13720;SDS011;6932;51.438;5.470;2023-01-26T12:56:54;18.63;;;9.00;;
13720;SDS011;6932;51.438;5.470;2023-01-26T12:59:35;18.40;;;8.97;;
13720;SDS011;6932;51.438;5.470;2023-01-26T13:04:58;20.17;;;8.27;;
13720;SDS011;6932;51.438;5.470;2023-01-26T13:07:27;21.20;;;9.47;;
13720;SDS011;6932;51.438;5.470;2023-01-26T13:10:09;17.97;;;8.40;;
13720;SDS011;6932;51.438;5.470;2023-01-26T13:12:54;15.27;;;7.83;;
13720;SDS011;6932;51.438;5.470;2023-01-26T13:18:55;16.57;;;7.97;;
13720;SDS011;6932;51.438;5.470;2023-01-26T13:26:41;14.37;;;6.03;;
13720;SDS011;6932;51.438;5.470;2023-01-26T13:29:25;11.63;;;4.97;;
13720;SDS011;6932;51.438;5.470;2023-01-26T13:31:54;12.10;;;5.40;;
13720;SDS011;6932;51.438;5.470;2023-01-26T13:34:41;13.97;;;5.33;;
13720;SDS011;6932;51.438;5.470;2023-01-26T13:40:21;13.17;;;5.00;;
13720;SDS011;6932;51.438;5.470;2023-01-26T13:43:06;14.30;;;4.60;;
13720;SDS011;6932;51.438;5.470;2023-01-26T13:46:12;14.87;;;4.63;;
13720;SDS011;6932;51.438;5.470;2023-01-26T13:48:52;13.80;;;4.67;;
13720;SDS011;6932;51.438;5.470;2023-01-26T13:51:29;15.23;;;4.47;;
13720;SDS011;6932;51.438;5.470;2023-01-26T13:54:11;11.03;;;3.80;;
13720;SDS011;6932;51.438;5.470;2023-01-26T13:56:39;12.83;;;3.97;;
13720;SDS011;6932;51.438;5.470;2023-01-26T13:59:27;15.50;;;4.17;;
13720;SDS011;6932;51.438;5.470;2023-01-26T14:01:54;14.70;;;3.73;;
13720;SDS011;6932;51.438;5.470;2023-01-26T14:04:28;9.93;;;3.37;;
13720;SDS011;6932;51.438;5.470;2023-01-26T14:07:12;12.40;;;3.63;;
13720;SDS011;6932;51.438;5.470;2023-01-26T14:09:43;14.43;;;3.33;;
13720;SDS011;6932;51.438;5.470;2023-01-26T14:12:21;10.40;;;2.83;;
13720;SDS011;6932;51.438;5.470;2023-01-26T14:14:52;10.67;;;3.30;;
13720;SDS011;6932;51.438;5.470;2023-01-26T14:17:28;12.50;;;3.53;;
13720;SDS011;6932;51.438;5.470;2023-01-26T14:19:57;10.30;;;3.00;;
13720;SDS011;6932;51.438;5.470;2023-01-26T14:22:25;12.87;;;3.03;;
13720;SDS011;6932;51.438;5.470;2023-01-26T14:24:52;11.83;;;3.13;;
13720;SDS011;6932;51.438;5.470;2023-01-26T14:27:26;8.53;;;2.77;;
13720;SDS011;6932;51.438;5.470;2023-01-26T14:30:48;9.03;;;2.80;;
13720;SDS011;6932;51.438;5.470;2023-01-26T14:33:11;10.20;;;2.43;;
13720;SDS011;6932;51.438;5.470;2023-01-26T14:35:39;10.43;;;2.67;;
13720;SDS011;6932;51.438;5.470;2023-01-26T14:40:42;9.30;;;2.73;;
13720;SDS011;6932;51.438;5.470;2023-01-26T14:43:14;12.57;;;2.97;;
13720;SDS011;6932;51.438;5.470;2023-01-26T14:45:49;9.53;;;2.40;;
13720;SDS011;6932;51.438;5.470;2023-01-26T14:48:17;10.67;;;2.20;;
13720;SDS011;6932;51.438;5.470;2023-01-26T14:50:50;11.20;;;2.77;;
13720;SDS011;6932;51.438;5.470;2023-01-26T14:53:17;10.77;;;2.80;;
13720;SDS011;6932;51.438;5.470;2023-01-26T14:55:47;9.57;;;2.20;;
13720;SDS011;6932;51.438;5.470;2023-01-26T14:58:19;9.37;;;2.10;;
13720;SDS011;6932;51.438;5.470;2023-01-26T15:00:52;9.53;;;2.13;;
13720;SDS011;6932;51.438;5.470;2023-01-26T15:06:35;8.07;;;2.10;;
13720;SDS011;6932;51.438;5.470;2023-01-26T15:08:37;6.60;;;2.07;;
13720;SDS011;6932;51.438;5.470;2023-01-26T15:11:04;7.67;;;1.90;;
13720;SDS011;6932;51.438;5.470;2023-01-26T15:13:52;7.40;;;1.90;;
13720;SDS011;6932;51.438;5.470;2023-01-26T15:16:20;9.00;;;2.03;;
13720;SDS011;6932;51.438;5.470;2023-01-26T15:18:58;8.20;;;2.00;;
13720;SDS011;6932;51.438;5.470;2023-01-26T15:21:35;7.63;;;1.90;;
13720;SDS011;6932;51.438;5.470;2023-01-26T15:24:04;7.80;;;2.20;;
13720;SDS011;6932;51.438;5.470;2023-01-26T15:26:37;8.53;;;2.10;;
13720;SDS011;6932;51.438;5.470;2023-01-26T15:29:04;6.00;;;2.10;;
13720;SDS011;6932;51.438;5.470;2023-01-26T15:31:49;7.87;;;2.40;;
13720;SDS011;6932;51.438;5.470;2023-01-26T15:34:37;9.33;;;2.33;;
13720;SDS011;6932;51.438;5.470;2023-01-26T15:39:55;10.20;;;2.53;;
13720;SDS011;6932;51.438;5.470;2023-01-26T15:42:22;6.80;;;2.20;;
13720;SDS011;6932;51.438;5.470;2023-01-26T15:44:55;7.27;;;2.13;;
13720;SDS011;6932;51.438;5.470;2023-01-26T15:47:22;6.37;;;1.90;;
13720;SDS011;6932;51.438;5.470;2023-01-26T15:49:47;8.80;;;2.17;;
13720;SDS011;6932;51.438;5.470;2023-01-26T15:52:14;7.57;;;2.30;;
13720;SDS011;6932;51.438;5.470;2023-01-26T15:54:42;9.07;;;2.70;;
13720;SDS011;6932;51.438;5.470;2023-01-26T15:57:11;8.07;;;2.40;;
13720;SDS011;6932;51.438;5.470;2023-01-26T15:59:38;6.30;;;1.93;;
13720;SDS011;6932;51.438;5.470;2023-01-26T16:02:18;7.03;;;2.40;;
13720;SDS011;6932;51.438;5.470;2023-01-26T16:04:45;10.10;;;2.47;;
13720;SDS011;6932;51.438;5.470;2023-01-26T16:07:12;8.67;;;2.37;;
13720;SDS011;6932;51.438;5.470;2023-01-26T16:09:40;5.33;;;2.00;;
13720;SDS011;6932;51.438;5.470;2023-01-26T16:12:16;7.70;;;2.10;;
13720;SDS011;6932;51.438;5.470;2023-01-26T16:14:43;8.13;;;2.20;;
13720;SDS011;6932;51.438;5.470;2023-01-26T16:17:12;9.57;;;2.30;;
13720;SDS011;6932;51.438;5.470;2023-01-26T16:19:41;7.20;;;1.87;;
13720;SDS011;6932;51.438;5.470;2023-01-26T16:22:08;6.17;;;1.93;;
13720;SDS011;6932;51.438;5.470;2023-01-26T16:24:36;9.13;;;2.10;;
13720;SDS011;6932;51.438;5.470;2023-01-26T16:27:06;8.30;;;2.10;;
13720;SDS011;6932;51.438;5.470;2023-01-26T16:29:33;10.63;;;3.00;;
13720;SDS011;6932;51.438;5.470;2023-01-26T16:31:59;9.63;;;2.23;;
13720;SDS011;6932;51.438;5.470;2023-01-26T16:34:26;8.00;;;2.20;;
13720;SDS011;6932;51.438;5.470;2023-01-26T16:36:53;8.90;;;2.40;;
13720;SDS011;6932;51.438;5.470;2023-01-26T16:39:20;9.90;;;2.20;;
13720;SDS011;6932;51.438;5.470;2023-01-26T16:41:46;8.53;;;2.20;;
13720;SDS011;6932;51.438;5.470;2023-01-26T16:44:13;7.87;;;2.20;;